EGNJ

Humberside Airport

Grimsby, United Kingdom
TAF EGNJ 221701Z 2218/2303 24006KT 9999 SCT025 TEMPO 2218/2222 3000 SHRASN BKN004
Issued Valid From Valid To
Jan-22 @ 17:01 UTC
(45 minutes ago)
Jan-22 @ 18:00 UTC
(in 14 minutes)
Jan-23 @ 03:00 UTC
(in 9 hours)
Jan-22 @ 18:00 to Jan-23 @ 03:00
TAF EGNJ 221701Z 2218/2303 24006KT 9999 SCT025
Wind Visibility Clouds
240° at 6 knots 10,000+ meters
  • Scattered at 2,500' AGL
Temporary Jan-22 @ 18:00 to Jan-22 @ 22:00
TEMPO 2218/2222 3000 SHRASN BKN004
Visibility Clouds Conditions
2,993 meters
  • Broken at 400' AGL
  • Rain
  • Snow
TAF EGNJ 221701Z 2218/2303 24006KT 9999 SCT025 TEMPO 2218/2222 3000 SHRASN BKN004
Issued Jan-22 @ 17:01 UTC
(45 minutes ago)
Valid From Jan-22 @ 18:00 UTC
(in 14 minutes)
Valid To Jan-23 @ 03:00 UTC
(in 9 hours)
Jan-22 @ 18:00 - Jan-23 @ 03:00
Wind Visibility
240° at 6 knots 10,000+ meters
Clouds
  • Scattered at 2,500' AGL
Temporary Jan-22 @ 18:00 - Jan-22 @ 22:00
Clouds
  • Broken at 400' AGL
Conditions
  • Rain
  • Snow